Luther, Michigan
Current Conditions -  °F | °C
As of 5:34 AM on Monday 26 Jan 2015 (Local Time) from KCAD Reporting Station
Light Snow Light Snow  
Wind Chill: -6°   Ceiling: 1300
Heat Index: -6°   Visibility: 2mi
Dew Point: -12°   Wind: 0mph
Humidity: 77%   Direction: NA
Pressure: 29.93"   Gusts: NA
Location:  44.04°N, 85.68°W
Report Text: KCAD 261034Z AUTO 00000KT 2SM -SN BKN013 M21/M24 A2993 RMK AO2 VIS 1V4 T12131244
Loading
Personal Weather Stations






























Interactive Weather Map New forecast layout! Learn more

10-Day Weather Forecast

Advertisements
Track Severe Weather on mobile